Weather at Tjilik Riwut Airport

Public forecast

Using degrees Celsius for public forecast. Weather courtesy of forecast.io.

Closest aviation weather report (METAR) to Tjilik Riwut Airport

Closest report is Syamsudin Noor International Airport, 88.1 nm (163.1 km) SE.

2024/04/22 11:30 (retrieved 42 minutes ago)

WAOO 221130Z 07003KT 9999 SCT016 26/25 Q1007 NOSIG

Closest aviation forecast (TAF) to Tjilik Riwut Airport

Closest forecast is Syamsudin Noor International Airport, 88.1 nm (163.1 km) SE.

2024/04/22 12:00 (retrieved 12 minutes ago)

TAF WAOO 221100Z 2212/2312 06006KT 9999 SCT018